Guthrie, KY

8:28 AM CDT on August 30, 2015 (GMT -0500)
APRSWXNET | | Change Station
CLOSE
Current Station
Personal Weather Station
Location: Elkton, KY
Elevation: 748 ft
Nearby Weather Stations

Elev 748 ft 36.88 °N, 87.17 °W | Updated 19 minutes ago

Partly Cloudy
Partly Cloudy
69 °F
Feels Like 69 °F
N
0
Wind Variable Wind from SSE
Gusts 0.0 mph

Today
High -- | Low -- °F
--% Chance of Precip.
Yesterday
High -- | Low -- °F
Precip. -- in
6:18 AM 7:20 PM
Full, 99% visible
Pressure 30.10 in
Visibility 10.0 miles
Clouds Clear
Dew Point 67 °F
Humidity 93%
Rainfall in
Snow Depth Not available.
UV 1 out of 12
Pollen 8.00 out of 12
Air Quality Not available.
Flu Activity Not available.
METAR KHOP 301258Z AUTO 13003KT 10SM CLR 21/19 A3011 RMK AO2 SLP193 T02090190
Pressure 30.10 in
Visibility 10.0 miles
Clouds Clear
Dew Point 67 °F
Humidity 93%
Rainfall in
Snow Depth Not available.
UV 1 out of 12
Pollen 8.00 out of 12
Air Quality Not available.
Flu Activity Not available.
METAR KHOP 301258Z AUTO 13003KT 10SM CLR 21/19 A3011 RMK AO2 SLP193 T02090190

10-Day Weather Forecast

×

Almanac

Astronomy

Aug. 30, 2015 Rise Set
Actual Time
Civil Twilight
Nautical Twilight
Astronomical Twilight
Moon
Length of Visible Light
Length of Day
Tomorrow will be .
, % of the Moon is Illuminated

Today's Extremes

State Highs State Lows

Community

WunderPhotos

Upload Photos

1,850,949 photos uploaded!

WunderBlogs® & News

Nearby

Air Quality

  Air Quality AQ Index Pollutant
Not available.

Snow Depth

Station Depth Elevation

Earthquake Activity

City Distance Mag. Time & Date
Minimum magnitude displayed is 2.5.

Coastal Water Temperatures

Place Temperature

Stations

Nearby Weather Stations

Station Location Temp. Windchill Dew Point Humidity Wind Precip. Elev Updated Type